sensor_id;sensor_type;location;lat;lon;timestamp;pressure;altitude;pressure_sealevel;temperature;humidity
9525;BME280;15940;48.734;9.112;2023-04-30T00:02:19;96814.31;;;10.10;85.22
9525;BME280;15940;48.734;9.112;2023-04-30T00:04:47;96810.59;;;10.07;85.19
9525;BME280;15940;48.734;9.112;2023-04-30T00:07:13;96809.63;;;10.10;85.39
9525;BME280;15940;48.734;9.112;2023-04-30T00:09:40;96815.78;;;10.11;85.16
9525;BME280;15940;48.734;9.112;2023-04-30T00:12:07;96812.81;;;10.09;85.22
9525;BME280;15940;48.734;9.112;2023-04-30T00:14:36;96811.34;;;10.08;85.22
9525;BME280;15940;48.734;9.112;2023-04-30T00:17:03;96821.16;;;10.05;85.44
9525;BME280;15940;48.734;9.112;2023-04-30T00:19:30;96816.75;;;10.08;85.60
9525;BME280;15940;48.734;9.112;2023-04-30T00:21:56;96814.53;;;10.06;85.38
9525;BME280;15940;48.734;9.112;2023-04-30T00:24:26;96815.00;;;10.05;85.41
9525;BME280;15940;48.734;9.112;2023-04-30T00:26:53;96814.94;;;9.99;85.16
9525;BME280;15940;48.734;9.112;2023-04-30T00:29:20;96810.75;;;9.98;85.30
9525;BME280;15940;48.734;9.112;2023-04-30T00:31:48;96809.47;;;9.93;85.17
9525;BME280;15940;48.734;9.112;2023-04-30T00:34:15;96824.19;;;9.92;85.81
9525;BME280;15940;48.734;9.112;2023-04-30T00:36:42;96813.59;;;9.89;86.08
9525;BME280;15940;48.734;9.112;2023-04-30T00:39:09;96812.59;;;9.86;86.00
9525;BME280;15940;48.734;9.112;2023-04-30T00:41:35;96813.03;;;9.85;86.12
9525;BME280;15940;48.734;9.112;2023-04-30T00:44:03;96818.94;;;9.83;86.13
9525;BME280;15940;48.734;9.112;2023-04-30T00:46:31;96820.63;;;9.81;85.74
9525;BME280;15940;48.734;9.112;2023-04-30T00:48:59;96821.59;;;9.78;86.08
9525;BME280;15940;48.734;9.112;2023-04-30T00:51:30;96816.38;;;9.74;86.42
9525;BME280;15940;48.734;9.112;2023-04-30T00:54:00;96820.56;;;9.75;86.21
9525;BME280;15940;48.734;9.112;2023-04-30T00:56:28;96831.38;;;9.75;86.29
9525;BME280;15940;48.734;9.112;2023-04-30T00:58:55;96822.72;;;9.71;85.96
9525;BME280;15940;48.734;9.112;2023-04-30T01:01:23;96820.25;;;9.67;86.14
9525;BME280;15940;48.734;9.112;2023-04-30T01:03:51;96825.19;;;9.69;86.20
9525;BME280;15940;48.734;9.112;2023-04-30T01:06:19;96831.81;;;9.68;86.24
9525;BME280;15940;48.734;9.112;2023-04-30T01:08:46;96829.09;;;9.68;86.07
9525;BME280;15940;48.734;9.112;2023-04-30T01:11:22;96823.69;;;9.68;85.93
9525;BME280;15940;48.734;9.112;2023-04-30T01:14:05;96820.97;;;9.68;85.73
9525;BME280;15940;48.734;9.112;2023-04-30T01:16:40;96820.69;;;9.66;85.88
9525;BME280;15940;48.734;9.112;2023-04-30T01:19:24;96818.72;;;9.66;85.58
9525;BME280;15940;48.734;9.112;2023-04-30T01:21:58;96814.53;;;9.65;85.63
9525;BME280;15940;48.734;9.112;2023-04-30T01:24:48;96806.16;;;9.63;85.63
9525;BME280;15940;48.734;9.112;2023-04-30T01:27:28;96808.88;;;9.63;85.57
9525;BME280;15940;48.734;9.112;2023-04-30T01:30:00;96806.63;;;9.62;85.70
9525;BME280;15940;48.734;9.112;2023-04-30T01:32:29;96803.94;;;9.62;85.88
9525;BME280;15940;48.734;9.112;2023-04-30T01:34:56;96804.34;;;9.55;85.52
9525;BME280;15940;48.734;9.112;2023-04-30T01:37:30;96804.06;;;9.53;86.13
9525;BME280;15940;48.734;9.112;2023-04-30T01:40:17;96795.88;;;9.47;85.46
9525;BME280;15940;48.734;9.112;2023-04-30T01:42:55;96804.19;;;9.43;86.03
9525;BME280;15940;48.734;9.112;2023-04-30T01:45:44;96801.72;;;9.40;86.25
9525;BME280;15940;48.734;9.112;2023-04-30T01:48:21;96801.41;;;9.38;85.91
9525;BME280;15940;48.734;9.112;2023-04-30T01:50:57;96800.66;;;9.37;85.91
9525;BME280;15940;48.734;9.112;2023-04-30T01:53:38;96804.13;;;9.38;85.85
9525;BME280;15940;48.734;9.112;2023-04-30T01:56:11;96805.63;;;9.39;85.85
9525;BME280;15940;48.734;9.112;2023-04-30T01:58:42;96817.94;;;9.40;85.75
9525;BME280;15940;48.734;9.112;2023-04-30T02:01:27;96810.81;;;9.42;85.81
9525;BME280;15940;48.734;9.112;2023-04-30T02:03:54;96803.47;;;9.43;85.92
9525;BME280;15940;48.734;9.112;2023-04-30T02:06:21;96812.53;;;9.40;85.88
9525;BME280;15940;48.734;9.112;2023-04-30T02:08:51;96809.53;;;9.38;85.89
9525;BME280;15940;48.734;9.112;2023-04-30T02:11:18;96804.31;;;9.34;86.34
9525;BME280;15940;48.734;9.112;2023-04-30T02:13:45;96809.72;;;9.34;86.04
9525;BME280;15940;48.734;9.112;2023-04-30T02:16:12;96807.25;;;9.31;85.67
9525;BME280;15940;48.734;9.112;2023-04-30T02:18:40;96808.47;;;9.30;85.82
9525;BME280;15940;48.734;9.112;2023-04-30T02:21:07;96805.00;;;9.29;85.44
9525;BME280;15940;48.734;9.112;2023-04-30T02:23:34;96800.78;;;9.28;85.58
9525;BME280;15940;48.734;9.112;2023-04-30T02:26:00;96804.72;;;9.27;85.36
9525;BME280;15940;48.734;9.112;2023-04-30T02:28:28;96802.75;;;9.28;85.74
9525;BME280;15940;48.734;9.112;2023-04-30T02:30:55;96802.00;;;9.27;85.49
9525;BME280;15940;48.734;9.112;2023-04-30T02:33:22;96799.03;;;9.25;85.29
9525;BME280;15940;48.734;9.112;2023-04-30T02:35:50;96798.03;;;9.23;85.57
9525;BME280;15940;48.734;9.112;2023-04-30T02:38:17;96803.91;;;9.21;85.38
9525;BME280;15940;48.734;9.112;2023-04-30T02:40:44;96806.06;;;9.17;85.42
9525;BME280;15940;48.734;9.112;2023-04-30T02:43:11;96804.84;;;9.18;85.72
9525;BME280;15940;48.734;9.112;2023-04-30T02:45:38;96798.41;;;9.15;85.77
9525;BME280;15940;48.734;9.112;2023-04-30T02:48:05;96803.09;;;9.15;85.55
9525;BME280;15940;48.734;9.112;2023-04-30T02:50:31;96801.81;;;9.10;85.56
9525;BME280;15940;48.734;9.112;2023-04-30T02:53:00;96803.00;;;9.09;86.00
9525;BME280;15940;48.734;9.112;2023-04-30T02:55:27;96804.22;;;9.08;85.76
9525;BME280;15940;48.734;9.112;2023-04-30T02:57:53;96801.50;;;9.08;86.14
9525;BME280;15940;48.734;9.112;2023-04-30T03:00:20;96806.91;;;9.08;86.01
9525;BME280;15940;48.734;9.112;2023-04-30T03:02:47;96802.94;;;9.04;86.01
9525;BME280;15940;48.734;9.112;2023-04-30T03:05:14;96809.72;;;8.99;86.21
9525;BME280;15940;48.734;9.112;2023-04-30T03:07:41;96801.63;;;8.99;86.29
9525;BME280;15940;48.734;9.112;2023-04-30T03:10:10;96808.97;;;8.99;86.64
9525;BME280;15940;48.734;9.112;2023-04-30T03:12:37;96796.69;;;8.98;86.69
9525;BME280;15940;48.734;9.112;2023-04-30T03:15:06;96805.25;;;8.96;86.55
9525;BME280;15940;48.734;9.112;2023-04-30T03:17:33;96797.38;;;8.93;86.54
9525;BME280;15940;48.734;9.112;2023-04-30T03:20:00;96808.66;;;8.91;86.89
9525;BME280;15940;48.734;9.112;2023-04-30T03:22:27;96799.31;;;8.92;86.82
9525;BME280;15940;48.734;9.112;2023-04-30T03:24:54;96802.03;;;8.92;87.16
9525;BME280;15940;48.734;9.112;2023-04-30T03:27:22;96806.22;;;8.93;87.23
9525;BME280;15940;48.734;9.112;2023-04-30T03:29:49;96804.25;;;8.94;87.73
9525;BME280;15940;48.734;9.112;2023-04-30T03:32:16;96794.47;;;8.96;88.28
9525;BME280;15940;48.734;9.112;2023-04-30T03:34:43;96798.66;;;8.97;87.52
9525;BME280;15940;48.734;9.112;2023-04-30T03:37:10;96806.28;;;8.99;87.51
9525;BME280;15940;48.734;9.112;2023-04-30T03:39:38;96799.13;;;8.96;88.39
9525;BME280;15940;48.734;9.112;2023-04-30T03:42:04;96801.28;;;8.92;87.69
9525;BME280;15940;48.734;9.112;2023-04-30T03:44:33;96796.81;;;8.88;87.43
9525;BME280;15940;48.734;9.112;2023-04-30T03:47:00;96795.03;;;8.85;87.58
9525;BME280;15940;48.734;9.112;2023-04-30T03:49:27;96798.59;;;8.92;88.20
9525;BME280;15940;48.734;9.112;2023-04-30T03:51:53;96804.78;;;8.98;88.76
9525;BME280;15940;48.734;9.112;2023-04-30T03:54:20;96793.97;;;8.98;88.20
9525;BME280;15940;48.734;9.112;2023-04-30T03:56:47;96802.28;;;8.94;88.04
9525;BME280;15940;48.734;9.112;2023-04-30T03:59:14;96801.72;;;8.90;88.12
9525;BME280;15940;48.734;9.112;2023-04-30T04:01:42;96794.66;;;8.93;88.42
9525;BME280;15940;48.734;9.112;2023-04-30T04:04:09;96801.81;;;8.96;88.69
9525;BME280;15940;48.734;9.112;2023-04-30T04:06:36;96801.09;;;8.95;88.52
9525;BME280;15940;48.734;9.112;2023-04-30T04:09:03;96803.03;;;8.95;88.56
9525;BME280;15940;48.734;9.112;2023-04-30T04:11:31;96797.16;;;8.96;88.51
9525;BME280;15940;48.734;9.112;2023-04-30T04:13:58;96808.97;;;8.99;88.43
9525;BME280;15940;48.734;9.112;2023-04-30T04:16:25;96813.38;;;8.96;88.64
9525;BME280;15940;48.734;9.112;2023-04-30T04:18:54;96816.28;;;8.93;88.33
9525;BME280;15940;48.734;9.112;2023-04-30T04:21:20;96808.34;;;8.89;88.07
9525;BME280;15940;48.734;9.112;2023-04-30T04:23:47;96812.75;;;8.86;88.36
9525;BME280;15940;48.734;9.112;2023-04-30T04:26:15;96813.22;;;8.85;88.18
9525;BME280;15940;48.734;9.112;2023-04-30T04:28:44;96814.50;;;8.90;89.15
9525;BME280;15940;48.734;9.112;2023-04-30T04:31:12;96812.25;;;8.88;89.11
9525;BME280;15940;48.734;9.112;2023-04-30T04:33:39;96819.09;;;8.83;88.63
9525;BME280;15940;48.734;9.112;2023-04-30T04:36:07;96810.03;;;8.86;88.65
9525;BME280;15940;48.734;9.112;2023-04-30T04:38:34;96828.31;;;8.92;89.38
9525;BME280;15940;48.734;9.112;2023-04-30T04:41:01;96812.94;;;8.83;88.27
9525;BME280;15940;48.734;9.112;2023-04-30T04:43:29;96822.31;;;8.87;88.82
9525;BME280;15940;48.734;9.112;2023-04-30T04:45:55;96829.16;;;8.83;88.98
9525;BME280;15940;48.734;9.112;2023-04-30T04:48:22;96828.47;;;8.88;88.84
9525;BME280;15940;48.734;9.112;2023-04-30T04:50:49;96823.22;;;8.99;89.26
9525;BME280;15940;48.734;9.112;2023-04-30T04:53:18;96826.31;;;9.07;89.01
9525;BME280;15940;48.734;9.112;2023-04-30T04:55:44;96819.69;;;9.08;88.76
9525;BME280;15940;48.734;9.112;2023-04-30T04:58:11;96828.34;;;9.12;88.88
9525;BME280;15940;48.734;9.112;2023-04-30T05:00:38;96818.47;;;9.09;88.18
9525;BME280;15940;48.734;9.112;2023-04-30T05:03:05;96817.53;;;9.12;88.45
9525;BME280;15940;48.734;9.112;2023-04-30T05:05:33;96824.16;;;9.11;88.13
9525;BME280;15940;48.734;9.112;2023-04-30T05:08:00;96821.78;;;9.19;88.77
9525;BME280;15940;48.734;9.112;2023-04-30T05:10:29;96823.84;;;9.24;88.25
9525;BME280;15940;48.734;9.112;2023-04-30T05:12:55;96815.34;;;9.31;87.86
9525;BME280;15940;48.734;9.112;2023-04-30T05:15:23;96822.41;;;9.28;87.55
9525;BME280;15940;48.734;9.112;2023-04-30T05:17:50;96825.41;;;9.30;87.45
9525;BME280;15940;48.734;9.112;2023-04-30T05:20:17;96826.69;;;9.35;87.57
9525;BME280;15940;48.734;9.112;2023-04-30T05:22:44;96819.88;;;9.39;87.86
9525;BME280;15940;48.734;9.112;2023-04-30T05:25:11;96818.47;;;9.44;86.84
9525;BME280;15940;48.734;9.112;2023-04-30T05:27:39;96823.94;;;9.50;86.41
9525;BME280;15940;48.734;9.112;2023-04-30T05:30:08;96829.34;;;9.50;85.99
9525;BME280;15940;48.734;9.112;2023-04-30T05:32:35;96824.31;;;9.57;86.12
9525;BME280;15940;48.734;9.112;2023-04-30T05:35:02;96826.41;;;9.68;85.83
9525;BME280;15940;48.734;9.112;2023-04-30T05:37:29;96824.47;;;9.74;85.08
9525;BME280;15940;48.734;9.112;2023-04-30T05:39:56;96821.03;;;9.73;84.38
9525;BME280;15940;48.734;9.112;2023-04-30T05:42:23;96823.22;;;9.69;83.49
9525;BME280;15940;48.734;9.112;2023-04-30T05:44:52;96823.47;;;9.71;83.65
9525;BME280;15940;48.734;9.112;2023-04-30T05:47:19;96819.38;;;9.76;83.85
9525;BME280;15940;48.734;9.112;2023-04-30T05:49:45;96818.19;;;9.83;84.16
9525;BME280;15940;48.734;9.112;2023-04-30T05:52:12;96819.97;;;9.86;83.45
9525;BME280;15940;48.734;9.112;2023-04-30T05:54:39;96821.22;;;9.90;83.38
9525;BME280;15940;48.734;9.112;2023-04-30T05:57:06;96823.06;;;9.99;82.84
9525;BME280;15940;48.734;9.112;2023-04-30T05:59:33;96818.25;;;10.09;82.49
9525;BME280;15940;48.734;9.112;2023-04-30T06:02:02;96824.63;;;10.32;82.95
9525;BME280;15940;48.734;9.112;2023-04-30T06:04:29;96826.72;;;10.42;81.75
9525;BME280;15940;48.734;9.112;2023-04-30T06:06:56;96828.22;;;10.43;80.46
9525;BME280;15940;48.734;9.112;2023-04-30T06:09:23;96829.53;;;10.53;80.15
9525;BME280;15940;48.734;9.112;2023-04-30T06:11:50;96829.25;;;10.51;78.80
9525;BME280;15940;48.734;9.112;2023-04-30T06:14:17;96835.53;;;10.63;79.75
9525;BME280;15940;48.734;9.112;2023-04-30T06:16:44;96829.16;;;10.66;79.18
9525;BME280;15940;48.734;9.112;2023-04-30T06:19:13;96827.25;;;10.78;79.18
9525;BME280;15940;48.734;9.112;2023-04-30T06:21:40;96829.38;;;10.94;78.15
9525;BME280;15940;48.734;9.112;2023-04-30T06:24:08;96828.97;;;11.07;77.58
9525;BME280;15940;48.734;9.112;2023-04-30T06:26:35;96828.81;;;11.22;75.91
9525;BME280;15940;48.734;9.112;2023-04-30T06:29:02;96829.59;;;11.28;74.93
9525;BME280;15940;48.734;9.112;2023-04-30T06:31:29;96827.63;;;11.28;74.75
9525;BME280;15940;48.734;9.112;2023-04-30T06:33:56;96832.56;;;11.30;75.18
9525;BME280;15940;48.734;9.112;2023-04-30T06:36:25;96836.47;;;11.23;74.52
9525;BME280;15940;48.734;9.112;2023-04-30T06:38:51;96828.63;;;11.31;74.67
9525;BME280;15940;48.734;9.112;2023-04-30T06:41:18;96833.81;;;11.34;75.30
9525;BME280;15940;48.734;9.112;2023-04-30T06:43:45;96832.38;;;11.39;75.52
9525;BME280;15940;48.734;9.112;2023-04-30T06:46:12;96837.31;;;11.40;75.73
9525;BME280;15940;48.734;9.112;2023-04-30T06:48:39;96834.91;;;11.48;75.75
9525;BME280;15940;48.734;9.112;2023-04-30T06:51:06;96838.16;;;11.58;74.14
9525;BME280;15940;48.734;9.112;2023-04-30T06:53:34;96841.91;;;11.71;74.50
9525;BME280;15940;48.734;9.112;2023-04-30T06:56:02;96837.03;;;11.81;74.05
9525;BME280;15940;48.734;9.112;2023-04-30T06:58:29;96835.34;;;11.89;73.69
9525;BME280;15940;48.734;9.112;2023-04-30T07:00:56;96832.00;;;12.17;73.25
9525;BME280;15940;48.734;9.112;2023-04-30T07:03:23;96829.81;;;12.43;70.16
9525;BME280;15940;48.734;9.112;2023-04-30T07:05:50;96834.03;;;12.78;71.06
9525;BME280;15940;48.734;9.112;2023-04-30T07:08:18;96834.78;;;13.06;69.57
9525;BME280;15940;48.734;9.112;2023-04-30T07:10:47;96828.59;;;13.23;68.60
9525;BME280;15940;48.734;9.112;2023-04-30T07:13:13;96822.31;;;13.61;69.36
9525;BME280;15940;48.734;9.112;2023-04-30T07:15:41;96826.78;;;14.22;67.67
9525;BME280;15940;48.734;9.112;2023-04-30T07:18:08;96817.81;;;14.33;65.53
9525;BME280;15940;48.734;9.112;2023-04-30T07:20:35;96817.81;;;14.27;64.83
9525;BME280;15940;48.734;9.112;2023-04-30T07:23:01;96828.56;;;14.09;65.44
9525;BME280;15940;48.734;9.112;2023-04-30T07:25:28;96824.94;;;14.42;66.07
9525;BME280;15940;48.734;9.112;2023-04-30T07:27:57;96821.88;;;14.56;63.12
9525;BME280;15940;48.734;9.112;2023-04-30T07:30:24;96813.75;;;14.04;63.88
9525;BME280;15940;48.734;9.112;2023-04-30T07:32:51;96813.09;;;13.81;66.78
9525;BME280;15940;48.734;9.112;2023-04-30T07:35:18;96814.50;;;13.99;66.87
9525;BME280;15940;48.734;9.112;2023-04-30T07:37:44;96816.41;;;14.15;65.57
9525;BME280;15940;48.734;9.112;2023-04-30T07:40:12;96817.34;;;14.23;62.68
9525;BME280;15940;48.734;9.112;2023-04-30T07:42:39;96812.38;;;14.27;63.66
9525;BME280;15940;48.734;9.112;2023-04-30T07:45:09;96804.53;;;14.60;63.57
9525;BME280;15940;48.734;9.112;2023-04-30T07:47:37;96804.34;;;14.46;64.05
9525;BME280;15940;48.734;9.112;2023-04-30T07:50:05;96814.66;;;14.18;64.25
9525;BME280;15940;48.734;9.112;2023-04-30T07:52:32;96814.34;;;14.33;65.99
9525;BME280;15940;48.734;9.112;2023-04-30T07:54:59;96806.25;;;14.57;64.60
9525;BME280;15940;48.734;9.112;2023-04-30T07:57:26;96808.84;;;14.79;63.27
9525;BME280;15940;48.734;9.112;2023-04-30T07:59:53;96806.00;;;14.91;61.34
9525;BME280;15940;48.734;9.112;2023-04-30T08:02:21;96807.78;;;15.12;61.47
9525;BME280;15940;48.734;9.112;2023-04-30T08:04:48;96805.06;;;15.37;61.21
9525;BME280;15940;48.734;9.112;2023-04-30T08:07:15;96812.75;;;15.38;60.13
9525;BME280;15940;48.734;9.112;2023-04-30T08:09:42;96814.41;;;15.47;57.71
9525;BME280;15940;48.734;9.112;2023-04-30T08:12:09;96813.44;;;15.45;59.19
9525;BME280;15940;48.734;9.112;2023-04-30T08:14:36;96820.59;;;15.48;58.31
9525;BME280;15940;48.734;9.112;2023-04-30T08:17:03;96818.16;;;14.90;59.28
9525;BME280;15940;48.734;9.112;2023-04-30T08:19:31;96810.38;;;14.34;60.40
9525;BME280;15940;48.734;9.112;2023-04-30T08:21:58;96812.56;;;13.94;60.64
9525;BME280;15940;48.734;9.112;2023-04-30T08:24:25;96814.34;;;13.80;62.93
9525;BME280;15940;48.734;9.112;2023-04-30T08:26:52;96816.09;;;13.72;62.49
9525;BME280;15940;48.734;9.112;2023-04-30T08:29:19;96823.03;;;13.73;62.61
9525;BME280;15940;48.734;9.112;2023-04-30T08:31:46;96826.97;;;13.78;61.50
9525;BME280;15940;48.734;9.112;2023-04-30T08:34:14;96816.31;;;13.85;61.84
9525;BME280;15940;48.734;9.112;2023-04-30T08:36:42;96817.00;;;13.91;61.92
9525;BME280;15940;48.734;9.112;2023-04-30T08:39:09;96820.78;;;13.77;61.06
9525;BME280;15940;48.734;9.112;2023-04-30T08:41:38;96824.03;;;13.64;62.97
9525;BME280;15940;48.734;9.112;2023-04-30T08:44:05;96821.34;;;13.59;62.96
9525;BME280;15940;48.734;9.112;2023-04-30T08:46:33;96819.84;;;13.63;61.84
9525;BME280;15940;48.734;9.112;2023-04-30T08:49:01;96819.31;;;13.76;62.37
9525;BME280;15940;48.734;9.112;2023-04-30T08:51:30;96814.38;;;13.69;59.40
9525;BME280;15940;48.734;9.112;2023-04-30T08:53:59;96819.56;;;13.72;61.44
9525;BME280;15940;48.734;9.112;2023-04-30T08:56:26;96818.81;;;13.72;60.49
9525;BME280;15940;48.734;9.112;2023-04-30T08:58:55;96816.09;;;13.78;58.83
9525;BME280;15940;48.734;9.112;2023-04-30T09:01:23;96818.47;;;13.98;61.26
9525;BME280;15940;48.734;9.112;2023-04-30T09:03:50;96816.94;;;14.08;60.09
9525;BME280;15940;48.734;9.112;2023-04-30T09:06:17;96819.91;;;14.10;58.18
9525;BME280;15940;48.734;9.112;2023-04-30T09:08:45;96818.94;;;14.02;57.46
9525;BME280;15940;48.734;9.112;2023-04-30T09:11:23;96814.72;;;14.07;58.51
9525;BME280;15940;48.734;9.112;2023-04-30T09:13:51;96813.81;;;13.93;58.57
9525;BME280;15940;48.734;9.112;2023-04-30T09:16:19;96816.03;;;13.89;56.96
9525;BME280;15940;48.734;9.112;2023-04-30T09:18:46;96820.75;;;13.83;56.33
9525;BME280;15940;48.734;9.112;2023-04-30T09:21:13;96816.06;;;13.83;58.28
9525;BME280;15940;48.734;9.112;2023-04-30T09:23:54;96810.38;;;13.87;58.66
9525;BME280;15940;48.734;9.112;2023-04-30T09:26:29;96808.88;;;13.86;59.55
9525;BME280;15940;48.734;9.112;2023-04-30T09:28:57;96815.03;;;13.92;57.36
9525;BME280;15940;48.734;9.112;2023-04-30T09:31:26;96809.78;;;13.99;57.35
9525;BME280;15940;48.734;9.112;2023-04-30T09:33:54;96812.97;;;14.09;58.66
9525;BME280;15940;48.734;9.112;2023-04-30T09:36:21;96818.13;;;14.18;55.93
9525;BME280;15940;48.734;9.112;2023-04-30T09:38:48;96813.41;;;14.19;56.52
9525;BME280;15940;48.734;9.112;2023-04-30T09:41:24;96817.81;;;14.27;55.23
9525;BME280;15940;48.734;9.112;2023-04-30T09:43:52;96818.59;;;14.22;54.48
9525;BME280;15940;48.734;9.112;2023-04-30T09:46:20;96817.81;;;14.27;57.66
9525;BME280;15940;48.734;9.112;2023-04-30T09:48:56;96811.91;;;14.23;55.51
9525;BME280;15940;48.734;9.112;2023-04-30T09:51:24;96815.31;;;14.29;57.19
9525;BME280;15940;48.734;9.112;2023-04-30T09:53:52;96820.75;;;14.35;56.81
9525;BME280;15940;48.734;9.112;2023-04-30T09:56:22;96816.00;;;14.47;53.96
9525;BME280;15940;48.734;9.112;2023-04-30T09:58:52;96815.00;;;14.50;54.80
9525;BME280;15940;48.734;9.112;2023-04-30T10:01:22;96815.50;;;14.43;54.25
9525;BME280;15940;48.734;9.112;2023-04-30T10:03:51;96806.06;;;14.49;54.94
9525;BME280;15940;48.734;9.112;2023-04-30T10:06:20;96807.25;;;14.60;56.58
9525;BME280;15940;48.734;9.112;2023-04-30T10:08:51;96808.00;;;14.54;53.11
9525;BME280;15940;48.734;9.112;2023-04-30T10:11:22;96813.53;;;14.43;55.32
9525;BME280;15940;48.734;9.112;2023-04-30T10:13:56;96812.28;;;14.39;53.97
9525;BME280;15940;48.734;9.112;2023-04-30T10:16:33;96811.84;;;14.35;54.28
9525;BME280;15940;48.734;9.112;2023-04-30T10:19:11;96812.84;;;14.32;53.84
9525;BME280;15940;48.734;9.112;2023-04-30T10:21:41;96815.16;;;14.22;53.71
9525;BME280;15940;48.734;9.112;2023-04-30T10:24:12;96814.13;;;14.25;54.87
9525;BME280;15940;48.734;9.112;2023-04-30T10:26:41;96812.38;;;14.27;54.62
9525;BME280;15940;48.734;9.112;2023-04-30T10:29:09;96817.81;;;14.33;54.51
9525;BME280;15940;48.734;9.112;2023-04-30T10:31:38;96806.59;;;14.42;54.68
9525;BME280;15940;48.734;9.112;2023-04-30T10:34:14;96800.25;;;14.64;56.20
9525;BME280;15940;48.734;9.112;2023-04-30T10:36:46;96800.16;;;14.75;55.29
9525;BME280;15940;48.734;9.112;2023-04-30T10:39:16;96795.31;;;14.93;54.73
9525;BME280;15940;48.734;9.112;2023-04-30T10:41:45;96793.00;;;15.02;53.51
9525;BME280;15940;48.734;9.112;2023-04-30T10:44:14;96796.94;;;15.07;51.85
9525;BME280;15940;48.734;9.112;2023-04-30T10:46:41;96799.47;;;15.24;53.90
9525;BME280;15940;48.734;9.112;2023-04-30T10:49:08;96795.72;;;15.51;54.14
9525;BME280;15940;48.734;9.112;2023-04-30T10:51:47;96788.41;;;15.65;52.36
9525;BME280;15940;48.734;9.112;2023-04-30T10:54:15;96785.84;;;15.48;50.93
9525;BME280;15940;48.734;9.112;2023-04-30T10:56:46;96782.38;;;15.23;51.41
9525;BME280;15940;48.734;9.112;2023-04-30T10:59:14;96780.56;;;15.07;52.67
9525;BME280;15940;48.734;9.112;2023-04-30T11:01:58;96777.31;;;15.08;53.20
9525;BME280;15940;48.734;9.112;2023-04-30T11:04:26;96776.28;;;15.11;54.12
9525;BME280;15940;48.734;9.112;2023-04-30T11:07:08;96766.94;;;15.07;52.36
9525;BME280;15940;48.734;9.112;2023-04-30T11:09:38;96779.06;;;15.06;53.19
9525;BME280;15940;48.734;9.112;2023-04-30T11:12:12;96774.31;;;15.12;52.64
9525;BME280;15940;48.734;9.112;2023-04-30T11:14:41;96770.53;;;15.15;52.14
9525;BME280;15940;48.734;9.112;2023-04-30T11:17:10;96766.75;;;15.24;53.36
9525;BME280;15940;48.734;9.112;2023-04-30T11:19:48;96780.78;;;15.09;53.07
9525;BME280;15940;48.734;9.112;2023-04-30T11:22:18;96772.09;;;15.10;53.57
9525;BME280;15940;48.734;9.112;2023-04-30T11:24:53;96769.06;;;14.90;52.93
9525;BME280;15940;48.734;9.112;2023-04-30T11:27:24;96770.88;;;14.81;53.17
9525;BME280;15940;48.734;9.112;2023-04-30T11:29:53;96772.81;;;14.86;53.51
9525;BME280;15940;48.734;9.112;2023-04-30T11:32:22;96774.97;;;14.94;52.85
9525;BME280;15940;48.734;9.112;2023-04-30T11:34:49;96774.72;;;14.97;52.70
9525;BME280;15940;48.734;9.112;2023-04-30T11:37:20;96770.94;;;15.00;52.99
9525;BME280;15940;48.734;9.112;2023-04-30T11:39:48;96768.22;;;15.00;52.17
9525;BME280;15940;48.734;9.112;2023-04-30T11:42:16;96766.94;;;15.07;53.71
9525;BME280;15940;48.734;9.112;2023-04-30T11:44:45;96766.53;;;15.22;54.31
9525;BME280;15940;48.734;9.112;2023-04-30T11:47:13;96765.56;;;15.19;52.42
9525;BME280;15940;48.734;9.112;2023-04-30T11:49:40;96763.28;;;15.23;52.51
9525;BME280;15940;48.734;9.112;2023-04-30T11:52:07;96764.53;;;15.22;53.56
9525;BME280;15940;48.734;9.112;2023-04-30T11:54:35;96751.41;;;15.21;52.07
9525;BME280;15940;48.734;9.112;2023-04-30T11:57:03;96749.50;;;15.34;51.40
9525;BME280;15940;48.734;9.112;2023-04-30T11:59:30;96750.00;;;15.57;51.28
9525;BME280;15940;48.734;9.112;2023-04-30T12:01:59;96753.03;;;15.73;52.40
9525;BME280;15940;48.734;9.112;2023-04-30T12:04:26;96746.00;;;15.83;50.28
9525;BME280;15940;48.734;9.112;2023-04-30T12:06:53;96745.97;;;16.02;51.32
9525;BME280;15940;48.734;9.112;2023-04-30T12:09:20;96744.00;;;16.02;49.08
9525;BME280;15940;48.734;9.112;2023-04-30T12:11:47;96746.09;;;16.09;50.84
9525;BME280;15940;48.734;9.112;2023-04-30T12:14:14;96744.09;;;16.10;51.33
9525;BME280;15940;48.734;9.112;2023-04-30T12:16:43;96747.34;;;16.08;50.16
9525;BME280;15940;48.734;9.112;2023-04-30T12:19:15;96734.03;;;15.86;49.24
9525;BME280;15940;48.734;9.112;2023-04-30T12:21:43;96737.47;;;15.67;49.44
9525;BME280;15940;48.734;9.112;2023-04-30T12:24:12;96743.06;;;15.56;50.16
9525;BME280;15940;48.734;9.112;2023-04-30T12:29:03;96746.34;;;15.30;52.03
9525;BME280;15940;48.734;9.112;2023-04-30T12:31:31;96750.09;;;15.27;53.19
9525;BME280;15940;48.734;9.112;2023-04-30T12:34:03;96743.38;;;15.28;51.04
9525;BME280;15940;48.734;9.112;2023-04-30T12:36:31;96736.16;;;15.31;52.47
9525;BME280;15940;48.734;9.112;2023-04-30T12:39:05;96743.34;;;15.53;51.71
9525;BME280;15940;48.734;9.112;2023-04-30T12:41:36;96746.41;;;15.68;53.54
9525;BME280;15940;48.734;9.112;2023-04-30T12:44:26;96738.81;;;15.80;49.98
9525;BME280;15940;48.734;9.112;2023-04-30T12:46:55;96742.59;;;15.77;49.75
9525;BME280;15940;48.734;9.112;2023-04-30T12:49:26;96737.53;;;15.62;50.67
9525;BME280;15940;48.734;9.112;2023-04-30T12:52:03;96733.63;;;15.57;50.91
9525;BME280;15940;48.734;9.112;2023-04-30T12:54:33;96732.34;;;15.58;51.35
9525;BME280;15940;48.734;9.112;2023-04-30T12:57:02;96725.31;;;15.68;50.88
9525;BME280;15940;48.734;9.112;2023-04-30T12:59:33;96727.28;;;15.87;49.09
9525;BME280;15940;48.734;9.112;2023-04-30T13:02:08;96724.41;;;15.98;52.55
9525;BME280;15940;48.734;9.112;2023-04-30T13:04:36;96728.16;;;16.14;52.62
9525;BME280;15940;48.734;9.112;2023-04-30T13:07:03;96722.44;;;16.31;51.18
9525;BME280;15940;48.734;9.112;2023-04-30T13:09:33;96721.94;;;16.32;50.86
9525;BME280;15940;48.734;9.112;2023-04-30T13:12:01;96708.81;;;16.44;51.68
9525;BME280;15940;48.734;9.112;2023-04-30T13:14:28;96711.13;;;16.40;51.59
9525;BME280;15940;48.734;9.112;2023-04-30T13:16:57;96708.28;;;16.45;50.99
9525;BME280;15940;48.734;9.112;2023-04-30T13:19:24;96703.88;;;16.55;52.87
9525;BME280;15940;48.734;9.112;2023-04-30T13:21:51;96705.69;;;16.53;49.06
9525;BME280;15940;48.734;9.112;2023-04-30T13:24:18;96700.34;;;16.61;48.81
9525;BME280;15940;48.734;9.112;2023-04-30T13:26:45;96701.03;;;16.93;49.24